Time;durP1;ratioP1;P1;durP2;ratioP2;P2;SDS_P1;SDS_P2;PMS_P1;PMS_P2;Temp;Humidity;BMP_temperature;BMP_pressure;BME280_temperature;BME280_humidity;BME280_pressure;Samples;Min_cycle;Max_cycle;Signal;HPM_P1;HPM_P2
2024/01/01 00:01:55;;;;;;;101.15;34.60;;;;;;;6.56;91.29;99081.00;6143871;23;20052;-84
2024/01/01 00:04:24;;;;;;;84.18;29.05;;;;;;;6.58;91.34;99079.06;6143759;23;20021;-84
2024/01/01 00:06:51;;;;;;;156.77;49.47;;;;;;;6.55;91.44;99070.59;6119151;23;20020;-85
2024/01/01 00:09:17;;;;;;;267.25;85.40;;;;;;;6.55;91.58;99087.25;6118569;23;20026;-85
2024/01/01 00:11:44;;;;;;;136.18;42.00;;;;;;;6.56;91.31;99088.06;6118383;23;20035;-86
2024/01/01 00:14:12;;;;;;;115.78;36.33;;;;;;;6.54;91.32;99088.22;6119795;23;20052;-84
2024/01/01 00:16:39;;;;;;;115.60;38.05;;;;;;;6.55;91.47;99095.16;6118839;23;20548;-85
2024/01/01 00:19:06;;;;;;;123.72;40.42;;;;;;;6.58;91.40;99101.97;6094914;23;20025;-86
2024/01/01 00:21:33;;;;;;;132.80;44.65;;;;;;;6.56;91.37;99090.72;6118945;23;20076;-85
2024/01/01 00:24:00;;;;;;;155.70;52.78;;;;;;;6.56;91.51;99078.34;6094977;23;20044;-86
2024/01/01 00:26:27;;;;;;;181.77;63.75;;;;;;;6.57;91.28;99079.22;6118016;23;20033;-86
2024/01/01 00:28:59;;;;;;;181.15;66.85;;;;;;;6.58;91.37;99086.97;6120408;23;20017;-85
2024/01/01 00:31:26;;;;;;;204.25;71.43;;;;;;;6.59;91.37;99087.81;6094754;23;20024;-84
2024/01/01 00:33:53;;;;;;;208.75;73.53;;;;;;;6.59;91.51;99083.41;6094716;23;20021;-85
2024/01/01 00:36:20;;;;;;;202.32;72.15;;;;;;;6.60;91.36;99086.88;6050508;23;20108;-84
2024/01/01 00:38:50;;;;;;;188.45;66.97;;;;;;;6.59;91.13;99088.66;6067315;23;20026;-84
2024/01/01 00:41:17;;;;;;;202.60;70.63;;;;;;;6.59;91.03;99078.13;6118910;23;20029;-84
2024/01/01 00:43:44;;;;;;;189.10;65.57;;;;;;;6.58;91.30;99081.72;6119256;23;20021;-84
2024/01/01 00:46:11;;;;;;;172.90;60.35;;;;;;;6.59;91.11;99079.91;6093552;23;20025;-85
2024/01/01 00:48:38;;;;;;;178.80;61.67;;;;;;;6.56;91.29;99088.91;6071256;23;20021;-84
2024/01/01 00:51:05;;;;;;;134.98;48.75;;;;;;;6.59;91.27;99086.03;6094591;23;20022;-84
2024/01/01 00:53:33;;;;;;;121.72;41.88;;;;;;;6.59;91.02;99078.13;6143372;23;20076;-84
2024/01/01 00:55:59;;;;;;;132.05;43.15;;;;;;;6.60;91.45;99078.94;6093490;23;20017;-83
2024/01/01 00:58:26;;;;;;;82.07;31.67;;;;;;;6.62;91.84;99077.84;6093553;23;20084;-84
2024/01/01 01:00:54;;;;;;;43.15;15.50;;;;;;;6.64;91.79;99075.94;6142846;23;20405;-85
2024/01/01 01:03:20;;;;;;;41.13;13.23;;;;;;;6.68;92.06;99087.88;6070319;23;20021;-84
2024/01/01 01:05:47;;;;;;;42.55;14.20;;;;;;;6.69;92.35;99073.75;6142838;23;20077;-85
2024/01/01 01:08:14;;;;;;;54.70;18.63;;;;;;;6.70;92.36;99070.13;6094224;23;20035;-84
2024/01/01 01:10:42;;;;;;;55.53;18.27;;;;;;;6.72;92.55;99073.47;6118702;23;20021;-85
2024/01/01 01:13:09;;;;;;;43.58;16.13;;;;;;;6.73;92.96;99075.13;6094535;23;20033;-85
2024/01/01 01:15:35;;;;;;;84.03;29.25;;;;;;;6.72;93.13;99062.91;6095130;23;20017;-85
2024/01/01 01:18:02;;;;;;;82.50;27.55;;;;;;;6.72;92.66;99075.28;6118678;23;20088;-85
2024/01/01 01:20:30;;;;;;;57.60;20.25;;;;;;;6.72;92.87;99075.28;6070667;23;20473;-85
2024/01/01 01:22:57;;;;;;;43.65;17.15;;;;;;;6.72;92.70;99073.47;6118721;23;20088;-85
2024/01/01 01:25:23;;;;;;;39.45;12.57;;;;;;;6.76;92.84;99081.94;6094148;23;20024;-85
2024/01/01 01:27:50;;;;;;;56.03;18.95;;;;;;;6.79;92.64;99075.59;6118270;23;20025;-85
2024/01/01 01:30:17;;;;;;;55.63;18.75;;;;;;;6.80;92.25;99080.75;6050577;23;20014;-85
2024/01/01 01:32:44;;;;;;;33.35;14.48;;;;;;;6.81;92.21;99082.41;6070633;23;20449;-85
2024/01/01 01:35:11;;;;;;;58.25;19.42;;;;;;;6.77;91.71;99083.66;6118225;23;20125;-85
2024/01/01 01:37:38;;;;;;;95.07;32.83;;;;;;;6.80;91.95;99087.81;6118633;23;20096;-85
2024/01/01 01:40:05;;;;;;;76.20;26.45;;;;;;;6.80;92.13;99086.03;6118211;23;20105;-85
2024/01/01 01:42:32;;;;;;;47.85;17.42;;;;;;;6.81;92.10;99084.22;6050373;23;20036;-85
2024/01/01 01:44:59;;;;;;;30.80;9.63;;;;;;;6.83;91.91;99075.19;6143202;23;20013;-85
2024/01/01 01:47:26;;;;;;;24.60;8.00;;;;;;;6.87;91.81;99083.69;6088807;23;20350;-85
2024/01/01 01:49:53;;;;;;;26.02;8.32;;;;;;;6.87;91.65;99086.31;6088992;23;20034;-85
2024/01/01 01:52:21;;;;;;;28.38;8.52;;;;;;;6.90;91.84;99094.00;6089441;23;20093;-85
2024/01/01 01:54:50;;;;;;;24.95;8.13;;;;;;;6.89;91.60;99098.41;6064794;23;20037;-85
2024/01/01 01:57:17;;;;;;;37.75;12.57;;;;;;;6.88;91.80;99101.19;6064712;23;20077;-85
2024/01/01 01:59:44;;;;;;;28.98;9.05;;;;;;;6.88;91.62;99088.84;6068952;23;20018;-85
2024/01/01 02:02:11;;;;;;;31.48;10.52;;;;;;;6.91;91.60;99100.94;6093745;23;20029;-84
2024/01/01 02:04:38;;;;;;;30.15;10.77;;;;;;;6.90;91.24;99096.63;6118358;23;20402;-85
2024/01/01 02:07:06;;;;;;;31.73;10.02;;;;;;;6.91;91.35;99103.56;6070416;23;20105;-84
2024/01/01 02:09:33;;;;;;;23.23;7.90;;;;;;;6.91;91.43;99099.13;6118327;23;20022;-84
2024/01/01 02:12:00;;;;;;;29.08;8.30;;;;;;;6.95;91.08;99099.72;6117825;23;20021;-85
2024/01/01 02:14:27;;;;;;;20.15;6.95;;;;;;;6.96;91.06;99104.00;6094992;23;20013;-85
2024/01/01 02:16:53;;;;;;;20.45;6.55;;;;;;;6.95;91.05;99100.53;6118302;23;20362;-85
2024/01/01 02:19:26;;;;;;;20.98;6.90;;;;;;;6.96;90.99;99096.09;6117784;23;20017;-84
2024/01/01 02:21:53;;;;;;;27.90;8.70;;;;;;;6.97;90.95;99100.41;6093938;23;20100;-84
2024/01/01 02:24:23;;;;;;;27.17;8.73;;;;;;;6.94;91.22;99092.75;6093802;23;20021;-85
2024/01/01 02:26:50;;;;;;;21.27;6.88;;;;;;;6.96;91.28;99093.47;6141946;23;20034;-85
2024/01/01 02:29:17;;;;;;;29.08;8.90;;;;;;;6.96;91.09;99101.38;6069416;23;20018;-85
2024/01/01 02:31:46;;;;;;;26.45;6.95;;;;;;;6.97;91.20;99087.19;6093970;23;20103;-85
2024/01/01 02:34:13;;;;;;;22.83;6.63;;;;;;;6.96;90.93;99091.66;6094081;23;20021;-85
2024/01/01 02:36:39;;;;;;;19.27;6.40;;;;;;;6.98;91.14;99094.16;6119038;23;20469;-85
2024/01/01 02:39:09;;;;;;;22.33;7.60;;;;;;;6.99;90.87;99089.72;6118016;23;20029;-84
2024/01/01 02:41:37;;;;;;;16.80;5.70;;;;;;;6.99;90.77;99087.09;6093956;23;20475;-85
2024/01/01 02:44:04;;;;;;;19.70;5.95;;;;;;;6.99;90.96;99095.84;6118232;23;20020;-85
2024/01/01 02:46:30;;;;;;;24.13;6.53;;;;;;;7.01;90.91;99106.28;6093696;23;20013;-85
2024/01/01 02:48:57;;;;;;;16.08;4.82;;;;;;;6.99;90.96;99098.47;6070464;23;20030;-85
2024/01/01 02:51:24;;;;;;;17.65;5.53;;;;;;;7.00;90.86;99096.69;6118416;23;20124;-85
2024/01/01 02:53:51;;;;;;;16.80;6.03;;;;;;;7.00;91.06;99104.63;6119576;23;20088;-85
2024/01/01 02:56:25;;;;;;;18.35;5.35;;;;;;;6.99;90.95;99101.09;6071291;23;20096;-85
2024/01/01 02:58:53;;;;;;;20.40;6.53;;;;;;;7.01;91.11;99109.75;6144296;23;20052;-85
2024/01/01 03:01:20;;;;;;;16.10;4.85;;;;;;;7.00;91.13;99104.63;6119132;23;20088;-85
2024/01/01 03:03:46;;;;;;;21.20;5.38;;;;;;;7.00;91.20;99123.91;6072121;23;20029;-85
2024/01/01 03:06:17;;;;;;;21.35;5.57;;;;;;;7.00;91.37;99101.97;6120412;23;20059;-85
2024/01/01 03:08:44;;;;;;;17.13;5.65;;;;;;;6.99;91.52;99103.75;6095934;23;20033;-85
2024/01/01 03:11:11;;;;;;;26.15;5.38;;;;;;;6.99;91.46;99111.66;6120040;23;20446;-85
2024/01/01 03:13:39;;;;;;;15.63;5.35;;;;;;;6.99;91.67;99111.66;6071933;23;20045;-85
2024/01/01 03:16:06;;;;;;;14.85;4.32;;;;;;;7.00;91.64;99116.00;6095410;23;20022;-85
2024/01/01 03:18:33;;;;;;;10.90;3.95;;;;;;;6.99;91.47;99116.13;6095083;23;20022;-85
2024/01/01 03:21:00;;;;;;;13.50;3.97;;;;;;;7.00;91.51;99116.00;6072339;23;20394;-85
2024/01/01 03:23:26;;;;;;;22.10;5.95;;;;;;;7.01;91.78;99116.81;6071853;23;20021;-85
2024/01/01 03:25:53;;;;;;;11.88;3.30;;;;;;;7.01;91.80;99127.38;6119850;23;20017;-84
2024/01/01 03:28:20;;;;;;;13.35;3.15;;;;;;;7.01;91.54;99117.66;6094470;23;20017;-84
2024/01/01 03:30:47;;;;;;;15.68;4.05;;;;;;;7.00;91.51;99117.81;6095251;23;20025;-85
2024/01/01 03:33:13;;;;;;;11.45;3.22;;;;;;;7.01;91.50;99112.38;6119444;23;20025;-85
2024/01/01 03:35:40;;;;;;;15.55;3.42;;;;;;;7.01;91.48;99117.66;6096008;23;20720;-84
2024/01/01 03:38:07;;;;;;;14.05;4.07;;;;;;;6.99;91.72;99122.22;6119039;23;20389;-85
2024/01/01 03:40:35;;;;;;;13.50;3.03;;;;;;;6.99;91.51;99121.41;6095337;23;20032;-85
2024/01/01 03:43:02;;;;;;;8.00;2.40;;;;;;;7.01;91.25;99124.75;6119198;23;20025;-85
2024/01/01 03:45:29;;;;;;;9.23;2.45;;;;;;;7.01;91.52;99128.22;6119556;23;20072;-85
2024/01/01 03:47:56;;;;;;;12.13;2.72;;;;;;;7.02;91.49;99127.28;6119789;23;20027;-85
2024/01/01 03:50:23;;;;;;;10.65;3.25;;;;;;;7.02;91.53;99131.69;6120046;23;20025;-85
2024/01/01 03:52:50;;;;;;;18.02;4.20;;;;;;;7.04;91.32;99135.03;6119321;23;20108;-85
2024/01/01 03:55:17;;;;;;;15.35;3.15;;;;;;;7.03;91.43;99126.28;6119644;23;20021;-85
2024/01/01 03:57:44;;;;;;;8.93;2.40;;;;;;;7.04;91.48;99137.69;6095901;23;20443;-84
2024/01/01 04:00:12;;;;;;;15.98;3.17;;;;;;;7.05;91.43;99132.28;6070553;23;20021;-84
2024/01/01 04:02:40;;;;;;;8.20;2.47;;;;;;;7.05;91.50;99126.16;6071431;23;20045;-85
2024/01/01 04:05:08;;;;;;;20.35;4.15;;;;;;;7.05;91.26;99120.88;6115549;23;20120;-84
2024/01/01 04:07:36;;;;;;;12.32;4.43;;;;;;;7.05;91.30;99126.16;6094330;23;20033;-84
2024/01/01 04:10:04;;;;;;;13.02;4.18;;;;;;;7.05;91.16;99128.81;6118667;23;20685;-85
2024/01/01 04:12:30;;;;;;;17.17;3.85;;;;;;;7.05;91.09;99121.72;6070385;23;20104;-85
2024/01/01 04:14:57;;;;;;;11.35;3.30;;;;;;;7.05;90.93;99134.09;6071201;23;20017;-85
2024/01/01 04:17:24;;;;;;;7.72;2.60;;;;;;;7.05;91.01;99132.28;6094103;23;20028;-85
2024/01/01 04:19:51;;;;;;;9.88;2.97;;;;;;;7.04;90.36;99135.03;6119794;23;20020;-84
2024/01/01 04:22:18;;;;;;;11.48;2.70;;;;;;;7.06;90.51;99139.22;6095129;23;20076;-85
2024/01/01 04:24:46;;;;;;;15.82;3.25;;;;;;;7.06;90.66;99128.66;6071608;23;20040;-85
2024/01/01 04:27:13;;;;;;;16.77;3.97;;;;;;;7.07;90.47;99129.50;6094590;23;20734;-85
2024/01/01 04:29:39;;;;;;;9.30;2.88;;;;;;;7.08;90.59;99129.38;6095140;23;20022;-84
2024/01/01 04:32:06;;;;;;;16.25;3.30;;;;;;;7.07;90.36;99130.34;6118788;23;20025;-85
2024/01/01 04:34:33;;;;;;;13.25;2.63;;;;;;;7.09;90.24;99135.47;6144001;23;20049;-85
2024/01/01 04:37:00;;;;;;;14.25;2.70;;;;;;;7.06;90.24;99118.09;6119157;23;20492;-85
2024/01/01 04:39:27;;;;;;;16.17;2.60;;;;;;;7.09;90.00;99124.91;6117220;23;20454;-85
2024/01/01 04:41:54;;;;;;;7.85;2.40;;;;;;;7.08;90.03;99118.81;6118772;23;20333;-85
2024/01/01 04:44:21;;;;;;;18.02;4.35;;;;;;;7.08;90.08;99104.78;6070456;23;20025;-85
2024/01/01 04:46:47;;;;;;;6.85;2.45;;;;;;;7.07;89.88;99114.50;6118746;23;20017;-85
2024/01/01 04:49:14;;;;;;;14.57;3.38;;;;;;;7.08;89.77;99102.16;6119589;23;20408;-85
2024/01/01 04:51:41;;;;;;;11.02;2.80;;;;;;;7.08;89.59;99104.78;6118859;23;20056;-85
2024/01/01 04:54:08;;;;;;;9.40;3.40;;;;;;;7.08;89.67;99088.94;6120237;23;21473;-85
2024/01/01 04:56:35;;;;;;;18.75;3.22;;;;;;;7.08;89.71;99092.41;6118432;23;20080;-85
2024/01/01 04:59:03;;;;;;;9.60;2.50;;;;;;;7.09;89.73;99093.25;6117792;23;20728;-85
2024/01/01 05:01:30;;;;;;;11.57;2.33;;;;;;;7.09;89.72;99095.88;6118691;23;20981;-85
2024/01/01 05:03:56;;;;;;;12.55;2.35;;;;;;;7.08;89.81;99089.78;6118989;23;20018;-85
2024/01/01 05:06:23;;;;;;;14.35;2.80;;;;;;;7.09;89.39;99094.06;6117488;23;20096;-85
2024/01/01 05:08:50;;;;;;;9.25;2.78;;;;;;;7.09;89.38;99102.00;6119755;23;20619;-84
2024/01/01 05:11:17;;;;;;;10.73;2.85;;;;;;;7.09;89.05;99096.72;6118639;23;20079;-85
2024/01/01 05:13:44;;;;;;;10.80;2.58;;;;;;;7.08;88.97;99092.41;6094529;23;20033;-85
2024/01/01 05:16:11;;;;;;;12.10;2.38;;;;;;;7.11;89.04;99104.50;6093508;23;20129;-85
2024/01/01 05:18:37;;;;;;;16.25;2.42;;;;;;;7.08;88.93;99113.53;6094731;23;20045;-85
2024/01/01 05:21:05;;;;;;;10.90;2.08;;;;;;;7.10;88.53;99113.41;6143230;23;20351;-85
2024/01/01 05:23:31;;;;;;;8.27;1.83;;;;;;;7.09;88.66;99107.28;6119175;23;20041;-85
2024/01/01 05:25:58;;;;;;;8.23;2.08;;;;;;;7.09;89.06;99109.91;6094380;23;20022;-85
2024/01/01 05:28:25;;;;;;;12.90;2.17;;;;;;;7.09;89.46;99120.47;6142757;23;20137;-85
2024/01/01 05:30:52;;;;;;;9.52;2.17;;;;;;;7.08;89.48;99121.44;6094975;23;20036;-85
2024/01/01 05:33:19;;;;;;;14.45;2.80;;;;;;;7.08;89.25;99123.25;6092786;23;20739;-84
2024/01/01 05:35:45;;;;;;;17.13;2.28;;;;;;;7.08;89.20;99124.09;6118264;23;20052;-85
2024/01/01 05:38:12;;;;;;;10.35;2.17;;;;;;;7.09;89.68;99122.28;6093908;23;20013;-85
2024/01/01 05:40:42;;;;;;;15.20;2.55;;;;;;;7.05;89.38;99134.09;6118106;23;20026;-85
2024/01/01 05:43:09;;;;;;;11.98;1.58;;;;;;;7.08;89.63;99139.09;6071000;23;20036;-85
2024/01/01 05:45:35;;;;;;;11.70;3.05;;;;;;;7.07;89.71;99124.22;6143303;23;20092;-85
2024/01/01 05:48:02;;;;;;;10.88;3.25;;;;;;;7.08;89.16;99141.75;6094148;23;20025;-85
2024/01/01 05:50:30;;;;;;;15.30;2.30;;;;;;;7.07;88.33;99151.47;6117608;23;20516;-85
2024/01/01 05:52:58;;;;;;;16.15;2.53;;;;;;;7.09;88.66;99154.78;6118861;23;20025;-85
2024/01/01 05:55:25;;;;;;;10.02;1.50;;;;;;;7.08;88.35;99142.56;6118781;23;20021;-85
2024/01/01 05:57:53;;;;;;;10.10;2.30;;;;;;;7.06;88.11;99136.59;6118373;23;20381;-85
2024/01/01 06:00:19;;;;;;;15.23;3.00;;;;;;;7.09;88.24;99154.78;6117789;23;20072;-84
2024/01/01 06:02:46;;;;;;;10.00;1.70;;;;;;;7.10;88.35;99167.03;6143220;23;20096;-85
2024/01/01 06:05:13;;;;;;;20.08;2.50;;;;;;;7.08;88.03;99153.13;6116755;23;20120;-85
2024/01/01 06:07:40;;;;;;;5.63;1.77;;;;;;;7.08;87.66;99153.13;6117963;23;20024;-85
2024/01/01 06:10:07;;;;;;;12.60;1.70;;;;;;;7.08;87.25;99158.41;6094297;23;20121;-84
2024/01/01 06:12:33;;;;;;;12.75;3.03;;;;;;;7.09;87.61;99156.59;6093683;23;20138;-85
2024/01/01 06:15:00;;;;;;;14.50;1.77;;;;;;;7.09;87.38;99165.34;6118490;23;20033;-84
2024/01/01 06:17:27;;;;;;;15.82;2.30;;;;;;;7.11;87.39;99168.72;6069721;23;20025;-85
2024/01/01 06:19:56;;;;;;;15.82;1.80;;;;;;;7.10;87.58;99174.13;6119312;23;20453;-85
2024/01/01 06:22:23;;;;;;;8.45;2.05;;;;;;;7.10;87.29;99167.03;6094404;23;20441;-84
2024/01/01 06:24:50;;;;;;;6.68;1.27;;;;;;;7.10;87.28;99174.13;6094196;23;20013;-85
2024/01/01 06:27:17;;;;;;;12.02;1.35;;;;;;;7.10;87.30;99179.41;6093965;23;20112;-84
2024/01/01 06:29:43;;;;;;;12.43;1.60;;;;;;;7.10;87.51;99193.44;6072285;23;20021;-84
2024/01/01 06:32:11;;;;;;;27.17;2.70;;;;;;;7.11;87.12;99181.06;6120025;23;20104;-84
2024/01/01 06:34:38;;;;;;;12.13;1.98;;;;;;;7.09;87.35;99189.13;6120143;23;20033;-84
2024/01/01 06:37:07;;;;;;;8.40;1.50;;;;;;;7.10;87.07;99192.63;6120371;23;20025;-84
2024/01/01 06:39:34;;;;;;;12.07;1.45;;;;;;;7.10;87.17;99195.25;6120421;23;20028;-84
2024/01/01 06:42:01;;;;;;;11.52;1.65;;;;;;;7.10;86.90;99187.34;6071116;23;20480;-84
2024/01/01 06:44:28;;;;;;;13.88;2.00;;;;;;;7.09;86.71;99201.47;6120957;23;20383;-84
2024/01/01 06:46:55;;;;;;;12.95;1.60;;;;;;;7.09;86.55;99199.66;6119872;23;20635;-85
2024/01/01 06:49:22;;;;;;;15.35;2.75;;;;;;;7.09;86.42;99204.13;6120085;23;20405;-85
2024/01/01 06:51:50;;;;;;;13.77;1.90;;;;;;;7.08;86.41;99198.00;6120829;23;20495;-85
2024/01/01 06:54:17;;;;;;;14.18;2.25;;;;;;;7.09;86.07;99206.75;6120717;23;20679;-85
2024/01/01 06:56:44;;;;;;;11.05;1.60;;;;;;;7.09;86.17;99204.13;6143776;23;20047;-85
2024/01/01 06:59:12;;;;;;;7.53;1.38;;;;;;;7.09;86.03;99204.94;6095536;23;20017;-85
2024/01/01 07:01:41;;;;;;;12.35;1.80;;;;;;;7.10;86.11;99203.19;6072285;23;20029;-85
2024/01/01 07:04:08;;;;;;;13.68;2.05;;;;;;;7.09;85.80;99197.03;6070512;23;20022;-85
2024/01/01 07:06:36;;;;;;;15.82;1.73;;;;;;;7.10;85.81;99196.09;6070456;23;20022;-85
2024/01/01 07:09:03;;;;;;;14.55;1.85;;;;;;;7.10;85.54;99213.72;6120722;23;20024;-84
2024/01/01 07:11:30;;;;;;;15.23;2.63;;;;;;;7.10;85.40;99209.28;6120141;23;20108;-84
2024/01/01 07:13:57;;;;;;;15.70;1.88;;;;;;;7.10;85.38;99197.91;6071679;23;20418;-85
2024/01/01 07:16:24;;;;;;;12.73;1.48;;;;;;;7.08;84.87;99208.56;6119978;23;20620;-85
2024/01/01 07:18:50;;;;;;;9.05;1.80;;;;;;;7.07;83.87;99227.16;6144771;23;20350;-85
2024/01/01 07:21:18;;;;;;;8.75;1.40;;;;;;;7.09;84.31;99214.69;6119718;23;20079;-85
2024/01/01 07:23:44;;;;;;;13.77;1.45;;;;;;;7.08;84.25;99219.13;6120564;23;20022;-85
2024/01/01 07:26:11;;;;;;;10.20;2.22;;;;;;;7.07;84.28;99228.03;6143734;23;20327;-85
2024/01/01 07:28:38;;;;;;;11.63;1.48;;;;;;;7.01;83.15;99231.16;6119048;23;20080;-85
2024/01/01 07:31:05;;;;;;;22.20;4.65;;;;;;;6.95;81.92;99236.97;6144034;23;20080;-85
2024/01/01 07:33:32;;;;;;;10.75;2.15;;;;;;;7.01;83.24;99225.88;6143402;23;20121;-85
2024/01/01 07:35:58;;;;;;;9.30;1.17;;;;;;;7.02;83.34;99232.84;6119952;23;20029;-85
2024/01/01 07:38:26;;;;;;;20.70;2.30;;;;;;;7.02;83.51;99232.00;6119849;23;20014;-85
2024/01/01 07:40:53;;;;;;;10.05;1.40;;;;;;;7.02;82.82;99242.56;6094688;23;20025;-85
2024/01/01 07:43:22;;;;;;;11.88;2.03;;;;;;;7.00;82.49;99247.16;6146745;23;20076;-85
2024/01/01 07:45:49;;;;;;;9.50;1.25;;;;;;;7.01;82.71;99244.38;6144517;23;20346;-85
2024/01/01 07:48:16;;;;;;;11.60;2.75;;;;;;;7.05;82.79;99253.72;6119438;23;20018;-85
2024/01/01 07:50:43;;;;;;;19.27;3.33;;;;;;;7.02;81.89;99251.34;6070789;23;20105;-85
2024/01/01 07:53:09;;;;;;;21.27;2.38;;;;;;;7.02;80.75;99243.41;6144163;23;20027;-84
2024/01/01 07:55:36;;;;;;;10.68;1.77;;;;;;;7.03;81.71;99254.81;6119224;23;20072;-85
2024/01/01 07:58:03;;;;;;;7.55;1.58;;;;;;;7.05;82.17;99252.88;6118917;23;20350;-84
2024/01/01 08:00:30;;;;;;;10.35;2.00;;;;;;;6.95;81.26;99252.81;6095115;23;20021;-84
2024/01/01 08:02:58;;;;;;;16.00;2.30;;;;;;;7.01;81.58;99252.28;6071460;23;20025;-85
2024/01/01 08:05:25;;;;;;;9.45;2.90;;;;;;;6.98;80.93;99251.72;6118727;23;20026;-85
2024/01/01 08:07:52;;;;;;;13.02;1.83;;;;;;;7.01;81.28;99256.72;6071012;23;20022;-85
2024/01/01 08:10:19;;;;;;;15.27;1.67;;;;;;;7.01;81.46;99254.91;6119263;23;20371;-85
2024/01/01 08:12:45;;;;;;;9.77;1.63;;;;;;;7.02;81.33;99263.66;6095033;23;20037;-85
2024/01/01 08:15:12;;;;;;;18.25;1.92;;;;;;;6.98;80.34;99257.00;6119653;23;20379;-85
2024/01/01 08:17:39;;;;;;;21.70;2.65;;;;;;;7.09;81.25;99262.19;6071121;23;20639;-85
2024/01/01 08:20:06;;;;;;;13.63;1.88;;;;;;;7.09;81.21;99270.13;6119841;23;20072;-85
2024/01/01 08:22:33;;;;;;;9.68;2.85;;;;;;;7.09;81.01;99272.75;6119214;23;20053;-84
2024/01/01 08:25:00;;;;;;;8.63;2.72;;;;;;;7.13;81.40;99271.56;6143003;23;20041;-84
2024/01/01 08:27:27;;;;;;;6.80;1.50;;;;;;;7.13;80.84;99263.63;6070753;23;20472;-84
2024/01/01 08:29:53;;;;;;;16.60;3.45;;;;;;;7.15;81.53;99273.09;6118837;23;20354;-85
2024/01/01 08:32:20;;;;;;;8.48;2.13;;;;;;;7.14;80.40;99263.50;6094156;23;20537;-85
2024/01/01 08:34:47;;;;;;;10.98;2.38;;;;;;;7.13;81.14;99258.34;6120211;23;20022;-84
2024/01/01 08:37:14;;;;;;;12.70;2.42;;;;;;;7.13;80.89;99253.06;6094744;23;20017;-85
2024/01/01 08:39:41;;;;;;;12.55;2.08;;;;;;;7.15;81.19;99265.19;6118593;23;20457;-85
2024/01/01 08:42:08;;;;;;;10.15;2.08;;;;;;;7.16;81.57;99261.56;6143930;23;20021;-85
2024/01/01 08:44:34;;;;;;;8.50;2.58;;;;;;;7.17;81.47;99270.31;6070026;23;20064;-85
2024/01/01 08:47:01;;;;;;;7.72;1.80;;;;;;;7.20;81.55;99266.59;6118419;23;20101;-85
2024/01/01 08:49:28;;;;;;;10.20;2.10;;;;;;;7.18;81.55;99269.38;6094708;23;20021;-84
2024/01/01 08:51:55;;;;;;;9.05;1.77;;;;;;;7.17;81.28;99279.09;6094675;23;20439;-85
2024/01/01 08:54:22;;;;;;;11.02;2.05;;;;;;;7.20;81.45;99285.94;6094359;23;20097;-86
2024/01/01 08:56:49;;;;;;;4.45;1.17;;;;;;;7.21;81.23;99277.03;6067816;23;20029;-85
2024/01/01 08:59:16;;;;;;;30.33;4.43;;;;;;;7.24;81.38;99278.56;6140570;23;20033;-85
2024/01/01 09:01:44;;;;;;;21.48;2.95;;;;;;;7.25;81.17;99275.81;6094075;23;20126;-85
2024/01/01 09:04:13;;;;;;;14.45;3.33;;;;;;;7.27;81.46;99281.78;6091595;23;20102;-85
2024/01/01 09:06:45;;;;;;;18.08;2.33;;;;;;;7.22;80.46;99299.81;6018713;23;20020;-85
2024/01/01 09:09:17;;;;;;;11.75;2.72;;;;;;;7.27;80.55;99295.00;6057198;23;20096;-85
2024/01/01 09:11:47;;;;;;;8.65;2.15;;;;;;;7.31;80.50;99295.59;6049546;23;20013;-85
2024/01/01 09:14:14;;;;;;;13.93;2.65;;;;;;;7.33;81.29;99291.84;6111107;23;20076;-84
2024/01/01 09:16:41;;;;;;;12.68;2.22;;;;;;;7.34;81.40;99301.44;6118519;23;20402;-83
2024/01/01 09:19:08;;;;;;;12.40;2.17;;;;;;;7.39;81.60;99306.34;6119928;23;20098;-85
2024/01/01 09:21:35;;;;;;;9.75;1.65;;;;;;;7.41;81.23;99316.78;6094395;23;20025;-83
2024/01/01 09:24:09;;;;;;;16.15;2.80;;;;;;;7.40;80.78;99315.94;6096620;23;20467;-85
2024/01/01 09:26:37;;;;;;;7.82;1.40;;;;;;;7.41;79.74;99304.41;6095184;23;20445;-85
2024/01/01 09:29:07;;;;;;;16.77;2.30;;;;;;;7.47;80.23;99319.75;6119388;23;20335;-85
2024/01/01 09:31:35;;;;;;;12.43;2.38;;;;;;;7.42;79.99;99316.66;6119241;23;20053;-86
2024/01/01 09:34:03;;;;;;;10.70;1.60;;;;;;;7.44;80.19;99311.25;6094864;23;20021;-86
2024/01/01 09:36:30;;;;;;;11.88;1.73;;;;;;;7.43;80.17;99318.34;6095252;23;20017;-85
2024/01/01 09:38:58;;;;;;;11.77;1.65;;;;;;;7.47;80.75;99318.91;6095300;23;20021;-85
2024/01/01 09:41:26;;;;;;;11.48;1.90;;;;;;;7.51;80.63;99318.53;6079590;23;20121;-84
2024/01/01 09:43:53;;;;;;;9.88;1.73;;;;;;;7.49;79.95;99306.41;6071329;23;20029;-86
2024/01/01 09:46:22;;;;;;;10.65;1.55;;;;;;;7.51;79.81;99315.88;6118473;23;20021;-85
2024/01/01 09:48:53;;;;;;;9.32;1.90;;;;;;;7.53;79.92;99321.88;6142547;23;20453;-85
2024/01/01 09:51:20;;;;;;;9.48;1.25;;;;;;;7.58;79.84;99313.56;6082585;23;20084;-86
2024/01/01 09:53:47;;;;;;;20.50;2.15;;;;;;;7.54;79.53;99312.16;6033541;23;20038;-87
2024/01/01 09:56:15;;;;;;;14.30;2.03;;;;;;;7.56;79.38;99318.16;6054609;23;20026;-87
2024/01/01 09:58:42;;;;;;;9.18;1.60;;;;;;;7.55;79.53;99322.56;6094955;23;20032;-85
2024/01/01 10:01:10;;;;;;;14.85;1.65;;;;;;;7.57;79.76;99325.09;6093068;23;20033;-86
2024/01/01 10:03:38;;;;;;;11.80;1.70;;;;;;;7.59;79.64;99320.53;6115468;23;20343;-86
2024/01/01 10:06:09;;;;;;;8.63;1.73;;;;;;;7.55;79.08;99317.28;6116519;23;20014;-86
2024/01/01 10:08:37;;;;;;;9.70;1.90;;;;;;;7.61;79.47;99323.88;6095548;23;20394;-87
2024/01/01 10:11:20;;;;;;;11.32;2.22;;;;;;;7.61;78.69;99326.53;6143905;23;20017;-86
2024/01/01 10:13:47;;;;;;;;;;;;;;;7.56;77.89;99342.75;6121317;23;20375;-87
2024/01/01 10:16:26;;;;;;;14.63;1.25;;;;;;;7.62;78.89;99341.41;6070738;23;19920;-87
2024/01/01 10:18:56;;;;;;;18.08;1.75;;;;;;;7.67;79.10;99339.22;6093998;23;20030;-86
2024/01/01 10:21:34;;;;;;;11.63;1.88;;;;;;;7.68;79.33;99338.22;6070665;23;20029;-85
2024/01/01 10:24:18;;;;;;;14.35;2.38;;;;;;;7.67;79.39;99344.50;6143996;23;20028;-86
2024/01/01 10:27:00;;;;;;;9.45;1.95;;;;;;;7.73;79.63;99338.69;6092242;23;20105;-84
2024/01/01 10:29:27;;;;;;;4.97;1.13;;;;;;;7.74;79.76;99350.94;6090191;23;20032;-84
2024/01/01 10:31:54;;;;;;;9.93;1.60;;;;;;;7.68;79.08;99340.88;6067099;23;20022;-85
2024/01/01 10:34:22;;;;;;;8.90;1.85;;;;;;;7.73;79.57;99349.25;6066551;23;20049;-83
2024/01/01 10:36:49;;;;;;;10.73;1.55;;;;;;;7.72;79.89;99347.59;6071270;23;20490;-84
2024/01/01 10:39:17;;;;;;;12.85;2.75;;;;;;;7.72;79.98;99342.31;6049195;23;20025;-84
2024/01/01 10:41:47;;;;;;;8.90;3.35;;;;;;;7.70;79.55;99349.50;6093055;23;24307;-84
2024/01/01 10:44:14;;;;;;;7.78;1.90;;;;;;;7.67;79.29;99346.31;6088363;23;20055;-84
2024/01/01 10:46:45;;;;;;;14.88;3.42;;;;;;;7.70;79.67;99348.69;6119191;23;20017;-83
2024/01/01 10:49:23;;;;;;;16.25;3.55;;;;;;;7.68;79.14;99350.63;6119000;23;20026;-84
2024/01/01 10:52:06;;;;;;;15.85;4.00;;;;;;;7.73;79.61;99345.78;6071170;23;20025;-84
2024/01/01 10:54:54;;;;;;;13.50;1.90;;;;;;;7.76;79.05;99334.94;6143818;23;20013;-84
2024/01/01 10:58:06;;;;;;;14.27;3.50;;;;;;;7.75;79.38;99354.41;6113186;23;20030;-83
2024/01/01 11:00:38;;;;;;;16.83;3.03;;;;;;;7.76;79.63;99359.59;6111794;23;20181;-85
2024/01/01 11:03:06;;;;;;;16.70;2.13;;;;;;;7.77;79.55;99341.91;6112761;23;20022;-83
2024/01/01 11:05:34;;;;;;;9.27;2.13;;;;;;;7.75;79.25;99347.31;6105505;23;20405;-83
2024/01/01 11:08:02;;;;;;;10.90;3.05;;;;;;;7.74;79.05;99372.09;6119022;23;20319;-84
2024/01/01 11:10:49;;;;;;;8.48;2.20;;;;;;;7.73;78.56;99369.56;6071127;23;20032;-83
2024/01/01 11:13:25;;;;;;;19.73;3.42;;;;;;;7.71;78.53;99380.28;6120269;23;20605;-84
2024/01/01 11:16:01;;;;;;;12.23;1.98;;;;;;;7.65;78.73;99377.31;6147773;23;20009;-84
2024/01/01 11:18:32;;;;;;;18.77;2.03;;;;;;;7.69;78.99;99366.34;6097360;23;20409;-84
2024/01/01 11:21:06;;;;;;;13.60;2.50;;;;;;;7.73;79.05;99370.38;6121626;23;20022;-84
2024/01/01 11:23:43;;;;;;;8.38;2.35;;;;;;;7.71;78.93;99355.63;6098671;23;20397;-86
2024/01/01 11:26:22;;;;;;;14.07;2.03;;;;;;;7.74;78.87;99366.81;6121838;23;20088;-84
2024/01/01 11:28:53;;;;;;;15.50;2.17;;;;;;;7.75;78.49;99368.47;6120412;23;20107;-84
2024/01/01 11:31:20;;;;;;;18.60;2.42;;;;;;;7.80;79.08;99365.44;6121088;23;20018;-84
2024/01/01 11:34:01;;;;;;;15.18;2.17;;;;;;;7.73;77.79;99366.91;6121068;23;20349;-84
2024/01/01 11:36:43;;;;;;;9.65;1.67;;;;;;;7.79;78.59;99366.41;6123803;23;20039;-84
2024/01/01 11:39:10;;;;;;;13.82;2.08;;;;;;;7.82;78.65;99358.22;6120707;23;20021;-84